Aeroporto :
LOGIN :

Iscrizione | Disclaimer

   EN    FR    IT 

 










Sommario :    VFR   VFR Marginale   IFR   IFR Intensivo   IFR Molto Intensivo
Visibilità : 
Base nubi : 
>= 8 km
>= 3000ft
5 / 8 km
1000 / 3000 ft
1500m / 5 km
500 / 1000 ft
800 / 1500m
200 / 500 ft
< 800m
< 200 ft
Simboli :   Temporali  Nebbia  Neve Forte  Precipitazioni Forti  Vento > 20 kt
SIGMETs :   Varie  Temporali  Ghiacco  Turbolenza  Onda orograficha  Ceneri Vulcaniche






- Altitudine del aeroporto : 7 ft
- Codice IATA : VCE


LIPZ - Marco Polo Int. Venezia

ULTIMO METAR :
  • 221150Z VRB02KT 8000 NSC 07/M00 Q1033 NOSIG

METARs OBSOLETI :
  • 221120Z VRB02KT 7000 NSC 06/M00 Q1034 NOSIG
  • 221050Z VRB02KT 7000 NSC 05/M00 Q1034 NOSIG
  • 221020Z 35004KT 7000 NSC 04/M00 Q1035 NOSIG
  • 220950Z 34003KT 320V020 7000 NSC 03/M01 Q1035 NOSIG
  • 220920Z 34003KT 290V020 7000 NSC 02/M01 Q1035 NOSIG

TAF TAF LIPZ
Valido dal 22 a 12 ore il 23 a 18 ore UTC


221100Z 2212/2318 VRB05KT 9999 FEW020



MetMap, La meteo Aeronautica in un colpo d'occhio ! - Copyright ORBIFLY Dicembre 2007 - Disclaimer

ORBIFLY MET'MAP TEAM :

Programmazione e sviluppo : Alexandra Zaïnal
Concezione : Baudouin d'Aumeries
Aiuto per la programmazione : Marc-Olivier Méhu
Supporto tecnico e logistico : Manuel Goepfert
Aiuto per la traduzione : Arnaldo La Scala

Contatto : metmap@orbifly.com




FONTI E CREDITI :

   NOAA